createdAt,value
2023-02-24T00:01:51.456Z,3.40
2023-02-24T00:04:21.422Z,4.90
2023-02-24T00:06:49.696Z,3.50
2023-02-24T00:09:20.045Z,3.30
2023-02-24T00:11:53.207Z,3.40
2023-02-24T00:14:21.558Z,2.30
2023-02-24T00:16:50.919Z,3.40
2023-02-24T00:19:20.651Z,3.40
2023-02-24T00:21:48.635Z,4.40
2023-02-24T00:24:17.012Z,3.40
2023-02-24T00:26:45.561Z,3.50
2023-02-24T00:29:14.412Z,3.50
2023-02-24T00:31:43.107Z,3.50
2023-02-24T00:34:15.044Z,3.50
2023-02-24T00:36:43.221Z,3.50
2023-02-24T00:39:12.254Z,3.50
2023-02-24T00:41:43.274Z,5.30
2023-02-24T00:44:13.603Z,3.50
2023-02-24T00:46:43.208Z,5.10
2023-02-24T00:49:17.102Z,3.50
2023-02-24T00:51:47.369Z,4.70
2023-02-24T00:54:16.103Z,3.60
2023-02-24T00:56:45.173Z,5.00
2023-02-24T00:59:14.416Z,4.30
2023-02-24T01:01:45.060Z,5.30
2023-02-24T01:04:15.126Z,3.60
2023-02-24T01:06:44.995Z,3.60
2023-02-24T01:09:14.674Z,3.50
2023-02-24T01:12:13.012Z,3.50
2023-02-24T01:14:41.295Z,3.50
2023-02-24T01:17:09.524Z,3.50
2023-02-24T01:19:38.742Z,3.80
2023-02-24T01:22:09.916Z,3.60
2023-02-24T01:24:40.944Z,3.50
2023-02-24T01:27:09.697Z,3.50
2023-02-24T01:29:39.531Z,3.50
2023-02-24T01:32:07.853Z,3.50
2023-02-24T01:34:35.944Z,3.70
2023-02-24T01:37:05.229Z,3.40
2023-02-24T01:39:33.752Z,3.40
2023-02-24T01:42:02.272Z,3.80
2023-02-24T01:45:16.126Z,3.40
2023-02-24T01:47:47.219Z,3.40
2023-02-24T01:50:17.647Z,3.40
2023-02-24T01:52:48.864Z,3.50
2023-02-24T01:55:22.719Z,3.40
2023-02-24T01:57:52.700Z,3.30
2023-02-24T02:00:33.670Z,3.30
2023-02-24T02:03:08.001Z,3.30
2023-02-24T02:05:36.123Z,3.30
2023-02-24T02:08:05.824Z,5.00
2023-02-24T02:10:34.867Z,3.30
2023-02-24T02:13:04.503Z,3.30
2023-02-24T02:15:37.464Z,3.20
2023-02-24T02:18:11.842Z,3.20
2023-02-24T02:21:03.837Z,3.20
2023-02-24T02:23:57.773Z,3.60
2023-02-24T02:26:54.427Z,3.20
2023-02-24T02:30:00.693Z,3.10
2023-02-24T02:33:01.706Z,3.10
2023-02-24T02:35:37.764Z,3.10
2023-02-24T02:38:15.187Z,3.10
2023-02-24T02:40:49.767Z,3.10
2023-02-24T02:43:24.564Z,3.10
2023-02-24T02:45:58.650Z,3.10
2023-02-24T02:48:31.357Z,3.10
2023-02-24T02:51:07.105Z,3.00
2023-02-24T02:53:40.646Z,3.00
2023-02-24T02:56:13.009Z,3.00
2023-02-24T02:58:46.687Z,3.00
2023-02-24T03:01:18.927Z,3.00
2023-02-24T03:03:50.416Z,2.90
2023-02-24T03:06:24.811Z,2.90
2023-02-24T03:08:57.910Z,3.50
2023-02-24T03:11:26.092Z,2.90
2023-02-24T03:13:57.484Z,2.80
2023-02-24T03:16:27.852Z,2.80
2023-02-24T03:19:00.278Z,2.80
2023-02-24T03:21:34.580Z,2.80
2023-02-24T03:24:05.609Z,2.80
2023-02-24T03:26:41.368Z,4.10
2023-02-24T03:29:12.708Z,2.60
2023-02-24T03:31:47.569Z,2.60
2023-02-24T03:34:21.198Z,2.60
2023-02-24T03:36:50.804Z,2.50
2023-02-24T03:39:18.696Z,2.50
2023-02-24T03:41:54.125Z,2.50
2023-02-24T03:44:22.002Z,2.40
2023-02-24T03:46:49.910Z,2.40
2023-02-24T03:49:17.772Z,2.40
2023-02-24T03:51:56.854Z,2.40
2023-02-24T03:54:46.818Z,2.40
2023-02-24T03:57:24.595Z,2.40
2023-02-24T04:00:19.303Z,2.40
2023-02-24T04:02:50.618Z,2.40
2023-02-24T04:05:23.980Z,2.40
2023-02-24T04:08:00.903Z,2.40
2023-02-24T04:10:37.303Z,3.50
2023-02-24T04:13:11.308Z,2.40
2023-02-24T04:15:45.428Z,2.40
2023-02-24T04:18:18.504Z,2.40
2023-02-24T04:20:49.348Z,2.40
2023-02-24T04:23:19.739Z,2.40
2023-02-24T04:25:52.252Z,2.40
2023-02-24T04:28:23.360Z,3.90
2023-02-24T04:30:54.099Z,2.40
2023-02-24T04:33:22.504Z,3.30
2023-02-24T04:35:51.825Z,2.40
2023-02-24T04:38:20.369Z,2.40
2023-02-24T04:40:50.050Z,2.40
2023-02-24T04:43:18.153Z,2.40
2023-02-24T04:45:46.195Z,2.40
2023-02-24T04:48:14.237Z,2.40
2023-02-24T04:50:43.979Z,2.40
2023-02-24T04:53:14.624Z,2.40
2023-02-24T04:55:48.402Z,2.40
2023-02-24T04:58:20.485Z,2.40
2023-02-24T05:00:52.436Z,2.50
2023-02-24T05:03:22.339Z,2.50
2023-02-24T05:05:52.866Z,2.50
2023-02-24T05:08:21.343Z,2.70
2023-02-24T05:10:49.358Z,3.80
2023-02-24T05:13:20.711Z,2.50
2023-02-24T05:15:49.652Z,2.50
2023-02-24T05:18:20.287Z,2.50
2023-02-24T05:21:07.296Z,2.50
2023-02-24T05:23:39.129Z,2.50
2023-02-24T05:26:09.355Z,2.50
2023-02-24T05:28:40.469Z,2.50
2023-02-24T05:31:10.012Z,2.50
2023-02-24T05:33:39.371Z,2.50
2023-02-24T05:36:10.571Z,2.50
2023-02-24T05:38:38.881Z,2.50
2023-02-24T05:41:08.290Z,3.90
2023-02-24T05:43:39.291Z,2.50
2023-02-24T05:46:08.556Z,3.90
2023-02-24T05:48:36.777Z,2.50
2023-02-24T05:51:08.032Z,2.50
2023-02-24T05:53:36.248Z,2.50
2023-02-24T05:56:05.840Z,2.50
2023-02-24T05:58:33.787Z,2.50
2023-02-24T06:01:06.744Z,2.50
2023-02-24T06:03:36.011Z,2.50
2023-02-24T06:06:08.793Z,2.50
2023-02-24T06:08:42.256Z,2.50
2023-02-24T06:11:11.633Z,2.50
2023-02-24T06:13:39.857Z,2.50
2023-02-24T06:16:12.784Z,2.50
2023-02-24T06:18:42.072Z,2.50
2023-02-24T06:21:12.473Z,2.90
2023-02-24T06:23:41.402Z,2.50
2023-02-24T06:26:12.995Z,2.50
2023-02-24T06:28:43.197Z,2.40
2023-02-24T06:31:11.190Z,4.20
2023-02-24T06:33:40.147Z,2.40
2023-02-24T06:36:10.028Z,2.40
2023-02-24T06:38:39.927Z,2.40
2023-02-24T06:41:10.949Z,2.40
2023-02-24T06:43:40.165Z,2.40
2023-02-24T06:46:08.997Z,2.40
2023-02-24T06:48:37.957Z,2.40
2023-02-24T06:51:07.016Z,2.50
2023-02-24T06:53:36.382Z,2.50
2023-02-24T06:56:14.678Z,2.50
2023-02-24T06:58:45.009Z,2.50
2023-02-24T07:01:13.937Z,3.30
2023-02-24T07:03:47.794Z,2.50
2023-02-24T07:06:23.764Z,2.40
2023-02-24T07:08:53.893Z,2.50
2023-02-24T07:11:22.427Z,2.50
2023-02-24T07:13:50.950Z,2.50
2023-02-24T07:16:20.896Z,2.50
2023-02-24T07:18:48.948Z,2.60
2023-02-24T07:21:21.109Z,2.50
2023-02-24T07:23:49.663Z,2.60
2023-02-24T07:26:23.070Z,2.60
2023-02-24T07:28:51.265Z,2.60
2023-02-24T07:31:22.791Z,2.60
2023-02-24T07:33:55.628Z,2.60
2023-02-24T07:36:24.012Z,2.70
2023-02-24T07:38:54.367Z,2.70
2023-02-24T07:41:26.345Z,2.70
2023-02-24T07:43:55.814Z,2.70
2023-02-24T07:46:27.871Z,3.00
2023-02-24T07:48:59.178Z,2.70
2023-02-24T07:51:29.602Z,2.70
2023-02-24T07:53:59.975Z,2.80
2023-02-24T07:56:31.199Z,3.90
2023-02-24T07:59:00.860Z,2.80
2023-02-24T08:01:29.660Z,2.90
2023-02-24T08:04:01.259Z,2.90
2023-02-24T08:06:37.804Z,2.90
2023-02-24T08:09:16.786Z,2.90
2023-02-24T08:11:47.444Z,2.90
2023-02-24T08:14:15.946Z,2.90
2023-02-24T08:16:44.842Z,2.90
2023-02-24T08:19:20.117Z,2.90
2023-02-24T08:21:50.551Z,2.90
2023-02-24T08:24:20.792Z,2.90
2023-02-24T08:27:04.169Z,2.90
2023-02-24T08:29:40.031Z,4.60
2023-02-24T08:32:09.381Z,2.90
2023-02-24T08:34:37.514Z,4.00
2023-02-24T08:37:05.716Z,2.90
2023-02-24T08:39:36.389Z,4.80
2023-02-24T08:42:07.531Z,3.00
2023-02-24T08:44:37.172Z,3.10
2023-02-24T08:47:07.441Z,3.00
2023-02-24T08:49:35.274Z,3.00
2023-02-24T08:52:05.481Z,3.00
2023-02-24T08:54:33.544Z,3.00
2023-02-24T08:57:08.095Z,2.90
2023-02-24T08:59:49.724Z,2.90
2023-02-24T09:02:24.132Z,2.90
2023-02-24T09:04:54.191Z,2.90
2023-02-24T09:07:24.217Z,2.90
2023-02-24T09:09:56.194Z,2.90
2023-02-24T09:12:25.879Z,2.90
2023-02-24T09:14:56.826Z,2.90
2023-02-24T09:17:49.747Z,2.90
2023-02-24T09:20:51.661Z,4.60
2023-02-24T09:23:20.946Z,3.00
2023-02-24T09:25:54.204Z,3.00
2023-02-24T09:28:24.774Z,3.00
2023-02-24T09:30:55.785Z,3.00
2023-02-24T09:33:26.258Z,3.00
2023-02-24T09:36:09.474Z,3.50
2023-02-24T09:38:56.352Z,3.00
2023-02-24T09:41:53.210Z,3.60
2023-02-24T09:44:27.148Z,3.00
2023-02-24T09:47:01.065Z,3.10
2023-02-24T09:49:39.963Z,3.20
2023-02-24T09:52:16.865Z,3.20
2023-02-24T09:55:14.371Z,3.10
2023-02-24T09:58:12.855Z,3.10
2023-02-24T10:00:48.616Z,3.00
2023-02-24T10:03:41.443Z,4.10
2023-02-24T10:06:20.642Z,4.00
2023-02-24T10:08:55.015Z,3.00
2023-02-24T10:11:32.921Z,4.60
2023-02-24T10:14:05.302Z,2.90
2023-02-24T10:16:43.505Z,2.90
2023-02-24T10:19:27.981Z,2.90
2023-02-24T10:22:03.442Z,2.90
2023-02-24T10:24:37.430Z,2.90
2023-02-24T10:27:16.755Z,2.90
2023-02-24T10:30:05.633Z,3.00
2023-02-24T10:32:42.683Z,3.00
2023-02-24T10:35:17.521Z,3.10
2023-02-24T10:37:46.007Z,3.10
2023-02-24T10:40:26.159Z,3.10
2023-02-24T10:43:10.369Z,3.10
2023-02-24T10:45:45.041Z,3.20
2023-02-24T10:48:40.365Z,4.40
2023-02-24T10:51:19.804Z,3.10
2023-02-24T10:54:09.572Z,3.10
2023-02-24T10:56:55.208Z,3.10
2023-02-24T10:59:48.303Z,3.10
2023-02-24T11:02:29.420Z,4.80
2023-02-24T11:05:27.098Z,3.10
2023-02-24T11:08:15.661Z,3.10
2023-02-24T11:10:58.643Z,3.00
2023-02-24T11:13:45.360Z,3.00
2023-02-24T11:16:30.936Z,3.00
2023-02-24T11:18:58.996Z,3.00
2023-02-24T11:21:28.586Z,3.00
2023-02-24T11:24:02.620Z,3.00
2023-02-24T11:26:36.611Z,3.80
2023-02-24T11:29:27.087Z,3.00
2023-02-24T11:32:14.137Z,2.90
2023-02-24T11:34:49.468Z,2.80
2023-02-24T11:37:32.163Z,2.80
2023-02-24T11:40:04.791Z,4.20
2023-02-24T11:42:37.695Z,4.50
2023-02-24T11:45:13.809Z,4.10
2023-02-24T11:47:45.123Z,2.90
2023-02-24T11:50:29.814Z,2.90
2023-02-24T11:52:59.574Z,2.90
2023-02-24T11:55:36.089Z,2.90
2023-02-24T11:58:13.417Z,2.90
2023-02-24T12:00:56.481Z,2.90
2023-02-24T12:03:30.981Z,2.90
2023-02-24T12:06:10.395Z,2.90
2023-02-24T12:08:41.918Z,4.60
2023-02-24T12:11:17.890Z,3.10
2023-02-24T12:13:51.128Z,2.90
2023-02-24T12:16:23.697Z,2.90
2023-02-24T12:18:57.254Z,2.90
2023-02-24T12:21:30.537Z,4.00
2023-02-24T12:23:59.705Z,2.90
2023-02-24T12:26:42.544Z,2.90
2023-02-24T12:29:24.108Z,2.90
2023-02-24T12:32:01.687Z,2.90
2023-02-24T12:34:38.644Z,2.90
2023-02-24T12:37:31.340Z,2.80
2023-02-24T12:40:13.543Z,2.90
2023-02-24T12:42:47.785Z,2.80
2023-02-24T12:45:21.659Z,2.90
2023-02-24T12:47:59.443Z,4.40
2023-02-24T12:50:38.411Z,3.40
2023-02-24T12:53:15.932Z,3.00
2023-02-24T12:55:50.676Z,3.10
2023-02-24T12:58:23.387Z,3.10
2023-02-24T13:01:03.156Z,3.20
2023-02-24T13:03:44.953Z,3.10
2023-02-24T13:06:19.953Z,3.20
2023-02-24T13:08:56.136Z,3.20
2023-02-24T13:11:36.313Z,3.20
2023-02-24T13:14:13.843Z,3.20
2023-02-24T13:16:42.294Z,3.20
2023-02-24T13:19:21.560Z,3.20
2023-02-24T13:22:06.028Z,3.20
2023-02-24T13:24:34.275Z,3.30
2023-02-24T13:27:22.789Z,3.70
2023-02-24T13:29:55.139Z,3.40
2023-02-24T13:32:31.636Z,5.40
2023-02-24T13:35:02.375Z,3.40
2023-02-24T13:37:34.441Z,3.40
2023-02-24T13:40:16.348Z,3.50
2023-02-24T13:42:45.826Z,3.50
2023-02-24T13:45:21.685Z,3.70
2023-02-24T13:48:10.591Z,3.70
2023-02-24T13:50:44.141Z,4.50
2023-02-24T13:53:29.285Z,3.80
2023-02-24T13:56:19.556Z,5.10
2023-02-24T13:59:02.571Z,3.90
2023-02-24T14:01:45.311Z,5.20
2023-02-24T14:04:16.814Z,5.00
2023-02-24T14:06:49.301Z,5.50
2023-02-24T14:09:22.587Z,3.90
2023-02-24T14:11:56.389Z,5.90
2023-02-24T14:14:25.222Z,4.00
2023-02-24T14:16:54.466Z,4.00
2023-02-24T14:19:22.473Z,4.70
2023-02-24T14:21:53.249Z,4.10
2023-02-24T14:24:21.863Z,6.00
2023-02-24T14:26:52.445Z,4.20
2023-02-24T14:29:22.904Z,5.70
2023-02-24T14:31:52.649Z,4.30
2023-02-24T14:34:24.846Z,4.50
2023-02-24T14:36:56.166Z,5.80
2023-02-24T14:39:26.024Z,4.30
2023-02-24T14:42:11.341Z,5.70
2023-02-24T14:44:42.965Z,4.40
2023-02-24T14:47:14.203Z,6.40
2023-02-24T14:49:52.610Z,4.50
2023-02-24T14:52:30.087Z,5.40
2023-02-24T14:55:03.283Z,4.50
2023-02-24T14:57:34.142Z,4.50
2023-02-24T15:00:11.527Z,4.50
2023-02-24T15:02:43.465Z,4.50
2023-02-24T15:05:13.080Z,4.50
2023-02-24T15:07:44.500Z,5.40
2023-02-24T15:10:22.160Z,4.50
2023-02-24T15:12:53.021Z,4.40
2023-02-24T15:15:24.809Z,6.20
2023-02-24T15:17:56.229Z,4.30
2023-02-24T15:20:33.432Z,4.30
2023-02-24T15:23:01.897Z,4.30
2023-02-24T15:25:42.254Z,4.30
2023-02-24T15:28:24.426Z,4.20
2023-02-24T15:31:04.851Z,4.20
2023-02-24T15:33:38.399Z,4.20
2023-02-24T15:36:17.210Z,4.20
2023-02-24T15:38:46.292Z,4.20
2023-02-24T15:41:15.313Z,4.20
2023-02-24T15:43:48.517Z,5.50
2023-02-24T15:46:23.525Z,4.40
2023-02-24T15:48:54.019Z,5.70
2023-02-24T15:51:30.092Z,4.10
2023-02-24T15:53:59.787Z,4.10
2023-02-24T15:56:29.292Z,4.20
2023-02-24T15:58:58.893Z,4.20
2023-02-24T16:01:27.297Z,5.20
2023-02-24T16:03:55.293Z,4.20
2023-02-24T16:06:26.200Z,5.70
2023-02-24T16:08:56.971Z,5.90
2023-02-24T16:11:28.957Z,4.20
2023-02-24T16:14:00.704Z,5.50
2023-02-24T16:16:29.403Z,5.10
2023-02-24T16:18:57.812Z,5.50
2023-02-24T16:21:27.092Z,4.30
2023-02-24T16:23:54.992Z,4.20
2023-02-24T16:26:24.344Z,6.00
2023-02-24T16:28:55.212Z,5.40
2023-02-24T16:31:23.757Z,4.30
2023-02-24T16:33:55.368Z,5.20
2023-02-24T16:36:24.728Z,6.10
2023-02-24T16:38:54.298Z,5.40
2023-02-24T16:41:22.635Z,4.30
2023-02-24T16:43:50.982Z,4.30
2023-02-24T16:46:22.383Z,4.30
2023-02-24T16:48:53.353Z,4.30
2023-02-24T16:51:22.680Z,5.60
2023-02-24T16:53:50.573Z,4.30
2023-02-24T16:56:20.135Z,5.90
2023-02-24T16:58:48.187Z,5.80
2023-02-24T17:01:20.903Z,4.20
2023-02-24T17:03:51.940Z,4.20
2023-02-24T17:06:22.760Z,4.20
2023-02-24T17:08:51.874Z,5.30
2023-02-24T17:11:23.669Z,4.30
2023-02-24T17:13:51.551Z,4.20
2023-02-24T17:16:19.968Z,4.20
2023-02-24T17:18:48.001Z,4.20
2023-02-24T17:21:16.759Z,4.20
2023-02-24T17:23:45.793Z,4.30
2023-02-24T17:26:15.672Z,4.30
2023-02-24T17:28:45.155Z,4.30
2023-02-24T17:31:13.124Z,4.30
2023-02-24T17:33:41.413Z,4.40
2023-02-24T17:36:09.341Z,4.40
2023-02-24T17:38:37.213Z,4.40
2023-02-24T17:41:05.263Z,4.40
2023-02-24T17:43:33.131Z,4.50
2023-02-24T17:46:06.868Z,4.40
2023-02-24T17:48:35.439Z,4.50
2023-02-24T17:51:03.545Z,5.20
2023-02-24T17:53:32.207Z,6.20
2023-02-24T17:56:04.394Z,5.70
2023-02-24T17:58:32.818Z,5.20
2023-02-24T18:01:02.844Z,4.30
2023-02-24T18:03:31.872Z,5.50
2023-02-24T18:06:00.804Z,6.10
2023-02-24T18:08:29.630Z,4.10
2023-02-24T18:10:58.974Z,5.40
2023-02-24T18:13:27.273Z,4.00
2023-02-24T18:15:55.190Z,4.00
2023-02-24T18:18:24.719Z,3.90
2023-02-24T18:20:52.752Z,3.90
2023-02-24T18:23:20.862Z,3.90
2023-02-24T18:25:48.755Z,3.80
2023-02-24T18:28:17.044Z,3.80
2023-02-24T18:30:44.987Z,3.70
2023-02-24T18:33:13.165Z,3.60
2023-02-24T18:35:42.500Z,3.50
2023-02-24T18:38:10.439Z,3.50
2023-02-24T18:40:38.525Z,3.40
2023-02-24T18:43:06.643Z,3.30
2023-02-24T18:45:34.489Z,3.20
2023-02-24T18:48:04.905Z,3.20
2023-02-24T18:50:33.940Z,3.20
2023-02-24T18:53:03.167Z,3.10
2023-02-24T18:55:31.086Z,3.00
2023-02-24T18:57:59.008Z,3.00
2023-02-24T19:00:26.993Z,3.00
2023-02-24T19:02:55.499Z,3.00
2023-02-24T19:05:24.930Z,3.00
2023-02-24T19:07:52.804Z,3.00
2023-02-24T19:10:23.233Z,4.40
2023-02-24T19:12:52.260Z,3.00
2023-02-24T19:15:22.293Z,3.10
2023-02-24T19:17:50.833Z,3.10
2023-02-24T19:20:20.046Z,3.20
2023-02-24T19:22:50.479Z,3.20
2023-02-24T19:25:21.265Z,5.20
2023-02-24T19:27:50.885Z,3.30
2023-02-24T19:30:19.147Z,3.30
2023-02-24T19:32:47.563Z,3.40
2023-02-24T19:35:16.619Z,3.40
2023-02-24T19:37:44.680Z,3.40
2023-02-24T19:40:13.557Z,3.40
2023-02-24T19:42:42.684Z,3.50
2023-02-24T19:45:12.265Z,3.40
2023-02-24T19:47:42.604Z,3.50
2023-02-24T19:50:12.285Z,3.50
2023-02-24T19:52:40.298Z,3.50
2023-02-24T19:55:10.965Z,3.50
2023-02-24T19:57:39.472Z,3.60
2023-02-24T20:00:11.488Z,4.90
2023-02-24T20:02:41.348Z,3.60
2023-02-24T20:05:10.340Z,3.60
2023-02-24T20:07:38.612Z,3.60
2023-02-24T20:10:07.285Z,3.60
2023-02-24T20:12:35.177Z,3.60
2023-02-24T20:15:03.072Z,3.60
2023-02-24T20:17:30.961Z,4.90
2023-02-24T20:20:00.238Z,3.60
2023-02-24T20:22:28.273Z,3.60
2023-02-24T20:24:56.204Z,3.60
2023-02-24T20:27:24.141Z,3.60
2023-02-24T20:29:53.648Z,5.20
2023-02-24T20:32:21.759Z,4.40
2023-02-24T20:34:49.813Z,4.10
2023-02-24T20:37:19.096Z,3.70
2023-02-24T20:39:47.040Z,3.40
2023-02-24T20:42:15.089Z,3.40
2023-02-24T20:44:42.980Z,3.40
2023-02-24T20:47:11.157Z,3.40
2023-02-24T20:49:39.261Z,3.40
2023-02-24T20:52:07.156Z,3.40
2023-02-24T20:54:36.411Z,4.70
2023-02-24T20:57:04.348Z,3.40
2023-02-24T20:59:32.201Z,4.70
2023-02-24T21:02:00.594Z,3.40
2023-02-24T21:04:28.511Z,3.50
2023-02-24T21:06:56.682Z,3.50
2023-02-24T21:09:24.525Z,3.50
2023-02-24T21:11:53.778Z,5.00
2023-02-24T21:14:23.037Z,3.70
2023-02-24T21:16:50.907Z,3.50
2023-02-24T21:19:20.193Z,3.50
2023-02-24T21:21:48.060Z,3.50
2023-02-24T21:24:15.982Z,5.30
2023-02-24T21:26:43.919Z,3.60
2023-02-24T21:29:14.023Z,3.50
2023-02-24T21:31:42.162Z,3.60
2023-02-24T21:34:11.915Z,3.60
2023-02-24T21:36:39.833Z,3.60
2023-02-24T21:39:07.709Z,4.90
2023-02-24T21:41:36.331Z,3.60
2023-02-24T21:44:04.989Z,3.60
2023-02-24T21:46:34.374Z,3.60
2023-02-24T21:49:02.309Z,3.80
2023-02-24T21:51:30.363Z,5.10
2023-02-24T21:53:58.673Z,3.60
2023-02-24T21:56:28.683Z,3.60
2023-02-24T21:58:59.403Z,3.60
2023-02-24T22:01:29.532Z,3.50
2023-02-24T22:04:00.279Z,3.50
2023-02-24T22:06:31.828Z,3.50
2023-02-24T22:09:00.603Z,3.50
2023-02-24T22:11:30.779Z,3.50
2023-02-24T22:13:59.092Z,4.80
2023-02-24T22:16:27.440Z,4.50
2023-02-24T22:18:56.104Z,3.50
2023-02-24T22:21:26.921Z,3.50
2023-02-24T22:23:58.168Z,3.50
2023-02-24T22:26:28.400Z,3.50
2023-02-24T22:28:56.924Z,3.40
2023-02-24T22:31:27.173Z,3.40
2023-02-24T22:33:55.161Z,3.50
2023-02-24T22:36:26.913Z,3.40
2023-02-24T22:38:56.719Z,3.40
2023-02-24T22:41:28.572Z,3.40
2023-02-24T22:43:56.550Z,4.40
2023-02-24T22:46:26.606Z,3.50
2023-02-24T22:48:55.679Z,3.50
2023-02-24T22:51:24.401Z,3.50
2023-02-24T22:53:54.167Z,3.50
2023-02-24T22:56:26.009Z,3.50
2023-02-24T22:58:54.043Z,3.50
2023-02-24T23:01:24.892Z,4.00
2023-02-24T23:03:53.246Z,3.50
2023-02-24T23:06:23.037Z,3.50
2023-02-24T23:08:53.497Z,3.50
2023-02-24T23:11:24.657Z,3.50
2023-02-24T23:13:53.316Z,5.00
2023-02-24T23:16:23.704Z,3.50
2023-02-24T23:18:56.080Z,3.50
2023-02-24T23:21:25.610Z,3.50
2023-02-24T23:23:56.967Z,3.50
2023-02-24T23:26:30.080Z,3.50
2023-02-24T23:31:34.106Z,3.50
2023-02-24T23:34:06.974Z,3.50
2023-02-24T23:36:36.001Z,3.40
2023-02-24T23:39:06.534Z,3.40
2023-02-24T23:41:35.243Z,3.40
2023-02-24T23:44:03.513Z,3.40
2023-02-24T23:46:33.685Z,3.50
2023-02-24T23:49:01.623Z,5.00
2023-02-24T23:51:45.832Z,3.50
2023-02-24T23:54:17.847Z,3.50
2023-02-24T23:56:46.367Z,3.50
2023-02-24T23:59:14.797Z,3.50
